sensor_id;sensor_type;location;lat;lon;timestamp;P1;durP1;ratioP1;P2;durP2;ratioP2
31596;SDS011;18201;50.978;7.034;2022-10-31T00:00:03;19.30;;;10.38;;
31596;SDS011;18201;50.978;7.034;2022-10-31T00:00:36;15.88;;;10.35;;
31596;SDS011;18201;50.978;7.034;2022-10-31T00:01:11;23.00;;;10.30;;
31596;SDS011;18201;50.978;7.034;2022-10-31T00:01:44;17.38;;;9.95;;
31596;SDS011;18201;50.978;7.034;2022-10-31T00:02:15;19.48;;;10.35;;
31596;SDS011;18201;50.978;7.034;2022-10-31T00:02:47;18.52;;;10.60;;
31596;SDS011;18201;50.978;7.034;2022-10-31T00:03:18;22.58;;;10.50;;
31596;SDS011;18201;50.978;7.034;2022-10-31T00:03:49;18.80;;;9.95;;
31596;SDS011;18201;50.978;7.034;2022-10-31T00:04:20;16.08;;;9.68;;
31596;SDS011;18201;50.978;7.034;2022-10-31T00:04:51;17.95;;;10.30;;
31596;SDS011;18201;50.978;7.034;2022-10-31T00:05:22;17.38;;;10.35;;
31596;SDS011;18201;50.978;7.034;2022-10-31T00:05:53;17.25;;;10.68;;
31596;SDS011;18201;50.978;7.034;2022-10-31T00:06:24;15.15;;;10.07;;
31596;SDS011;18201;50.978;7.034;2022-10-31T00:06:56;19.92;;;11.27;;
31596;SDS011;18201;50.978;7.034;2022-10-31T00:07:27;17.77;;;10.70;;
31596;SDS011;18201;50.978;7.034;2022-10-31T00:08:01;15.95;;;10.30;;
31596;SDS011;18201;50.978;7.034;2022-10-31T00:08:33;16.13;;;9.73;;
31596;SDS011;18201;50.978;7.034;2022-10-31T00:09:05;17.58;;;10.13;;
31596;SDS011;18201;50.978;7.034;2022-10-31T00:09:36;18.08;;;10.50;;
31596;SDS011;18201;50.978;7.034;2022-10-31T00:10:08;18.77;;;9.98;;
31596;SDS011;18201;50.978;7.034;2022-10-31T00:10:39;14.32;;;10.45;;
31596;SDS011;18201;50.978;7.034;2022-10-31T00:11:11;15.13;;;10.40;;
31596;SDS011;18201;50.978;7.034;2022-10-31T00:11:43;16.45;;;11.18;;
31596;SDS011;18201;50.978;7.034;2022-10-31T00:12:14;17.38;;;11.25;;
31596;SDS011;18201;50.978;7.034;2022-10-31T00:12:45;14.00;;;9.48;;
31596;SDS011;18201;50.978;7.034;2022-10-31T00:13:16;14.52;;;9.95;;
31596;SDS011;18201;50.978;7.034;2022-10-31T00:13:47;17.27;;;11.13;;
31596;SDS011;18201;50.978;7.034;2022-10-31T00:14:18;13.50;;;8.57;;
31596;SDS011;18201;50.978;7.034;2022-10-31T00:14:51;15.00;;;9.65;;
31596;SDS011;18201;50.978;7.034;2022-10-31T00:15:22;15.98;;;10.00;;
31596;SDS011;18201;50.978;7.034;2022-10-31T00:15:53;17.83;;;9.50;;
31596;SDS011;18201;50.978;7.034;2022-10-31T00:16:25;14.48;;;9.48;;
31596;SDS011;18201;50.978;7.034;2022-10-31T00:16:57;16.70;;;10.38;;
31596;SDS011;18201;50.978;7.034;2022-10-31T00:17:28;15.35;;;10.25;;
31596;SDS011;18201;50.978;7.034;2022-10-31T00:17:58;14.70;;;9.68;;
31596;SDS011;18201;50.978;7.034;2022-10-31T00:18:30;15.05;;;10.05;;
31596;SDS011;18201;50.978;7.034;2022-10-31T00:19:02;21.05;;;10.07;;
31596;SDS011;18201;50.978;7.034;2022-10-31T00:19:34;16.75;;;10.10;;
31596;SDS011;18201;50.978;7.034;2022-10-31T00:20:06;16.13;;;9.60;;
31596;SDS011;18201;50.978;7.034;2022-10-31T00:20:38;17.83;;;10.85;;
31596;SDS011;18201;50.978;7.034;2022-10-31T00:21:09;12.93;;;9.70;;
31596;SDS011;18201;50.978;7.034;2022-10-31T00:21:41;16.80;;;9.75;;
31596;SDS011;18201;50.978;7.034;2022-10-31T00:22:12;18.00;;;10.18;;
31596;SDS011;18201;50.978;7.034;2022-10-31T00:22:42;14.75;;;10.68;;
31596;SDS011;18201;50.978;7.034;2022-10-31T00:23:13;17.33;;;10.52;;
31596;SDS011;18201;50.978;7.034;2022-10-31T00:23:45;19.50;;;10.77;;
31596;SDS011;18201;50.978;7.034;2022-10-31T00:24:16;15.95;;;10.77;;
31596;SDS011;18201;50.978;7.034;2022-10-31T00:24:47;14.02;;;9.70;;
31596;SDS011;18201;50.978;7.034;2022-10-31T00:25:19;17.05;;;10.18;;
31596;SDS011;18201;50.978;7.034;2022-10-31T00:25:51;17.27;;;10.32;;
31596;SDS011;18201;50.978;7.034;2022-10-31T00:26:21;18.05;;;10.57;;
31596;SDS011;18201;50.978;7.034;2022-10-31T00:26:53;19.63;;;10.38;;
31596;SDS011;18201;50.978;7.034;2022-10-31T00:27:24;15.20;;;10.05;;
31596;SDS011;18201;50.978;7.034;2022-10-31T00:27:55;20.90;;;10.27;;
31596;SDS011;18201;50.978;7.034;2022-10-31T00:28:27;20.70;;;10.10;;
31596;SDS011;18201;50.978;7.034;2022-10-31T00:29:00;14.43;;;9.98;;
31596;SDS011;18201;50.978;7.034;2022-10-31T00:29:31;17.15;;;10.05;;
31596;SDS011;18201;50.978;7.034;2022-10-31T00:30:05;16.13;;;10.15;;
31596;SDS011;18201;50.978;7.034;2022-10-31T00:30:36;17.90;;;11.00;;
31596;SDS011;18201;50.978;7.034;2022-10-31T00:31:08;20.83;;;11.70;;
31596;SDS011;18201;50.978;7.034;2022-10-31T00:31:40;17.50;;;9.80;;
31596;SDS011;18201;50.978;7.034;2022-10-31T00:32:11;18.38;;;10.57;;
31596;SDS011;18201;50.978;7.034;2022-10-31T00:32:42;19.17;;;9.65;;
31596;SDS011;18201;50.978;7.034;2022-10-31T00:33:13;16.00;;;9.73;;
31596;SDS011;18201;50.978;7.034;2022-10-31T00:33:44;20.75;;;10.48;;
31596;SDS011;18201;50.978;7.034;2022-10-31T00:34:16;17.50;;;9.38;;
31596;SDS011;18201;50.978;7.034;2022-10-31T00:34:47;18.98;;;10.60;;
31596;SDS011;18201;50.978;7.034;2022-10-31T00:35:18;17.45;;;10.43;;
31596;SDS011;18201;50.978;7.034;2022-10-31T00:35:50;17.65;;;10.27;;
31596;SDS011;18201;50.978;7.034;2022-10-31T00:36:21;20.95;;;9.63;;
31596;SDS011;18201;50.978;7.034;2022-10-31T00:36:52;20.92;;;10.73;;
31596;SDS011;18201;50.978;7.034;2022-10-31T00:37:23;17.45;;;10.65;;
31596;SDS011;18201;50.978;7.034;2022-10-31T00:37:54;18.35;;;10.50;;
31596;SDS011;18201;50.978;7.034;2022-10-31T00:38:25;12.32;;;9.52;;
31596;SDS011;18201;50.978;7.034;2022-10-31T00:38:57;14.27;;;9.43;;
31596;SDS011;18201;50.978;7.034;2022-10-31T00:39:28;19.90;;;10.55;;
31596;SDS011;18201;50.978;7.034;2022-10-31T00:39:59;17.73;;;10.77;;
31596;SDS011;18201;50.978;7.034;2022-10-31T00:40:30;12.02;;;9.75;;
31596;SDS011;18201;50.978;7.034;2022-10-31T00:41:02;15.75;;;10.30;;
31596;SDS011;18201;50.978;7.034;2022-10-31T00:41:33;21.85;;;10.63;;
31596;SDS011;18201;50.978;7.034;2022-10-31T00:42:04;17.45;;;10.88;;
31596;SDS011;18201;50.978;7.034;2022-10-31T00:42:36;15.40;;;9.80;;
31596;SDS011;18201;50.978;7.034;2022-10-31T00:43:07;14.32;;;10.10;;
31596;SDS011;18201;50.978;7.034;2022-10-31T00:43:38;17.65;;;10.50;;
31596;SDS011;18201;50.978;7.034;2022-10-31T00:44:08;17.80;;;11.23;;
31596;SDS011;18201;50.978;7.034;2022-10-31T00:44:40;16.98;;;10.52;;
31596;SDS011;18201;50.978;7.034;2022-10-31T00:45:13;14.23;;;10.10;;
31596;SDS011;18201;50.978;7.034;2022-10-31T00:45:43;15.13;;;10.40;;
31596;SDS011;18201;50.978;7.034;2022-10-31T00:46:15;16.23;;;11.65;;
31596;SDS011;18201;50.978;7.034;2022-10-31T00:46:46;16.15;;;10.63;;
31596;SDS011;18201;50.978;7.034;2022-10-31T00:47:17;18.85;;;10.32;;
31596;SDS011;18201;50.978;7.034;2022-10-31T00:47:49;22.48;;;11.55;;
31596;SDS011;18201;50.978;7.034;2022-10-31T00:48:20;17.88;;;10.50;;
31596;SDS011;18201;50.978;7.034;2022-10-31T00:48:51;20.05;;;10.93;;
31596;SDS011;18201;50.978;7.034;2022-10-31T00:49:22;20.42;;;11.00;;
31596;SDS011;18201;50.978;7.034;2022-10-31T00:49:53;20.58;;;11.82;;
31596;SDS011;18201;50.978;7.034;2022-10-31T00:50:24;19.85;;;11.77;;
31596;SDS011;18201;50.978;7.034;2022-10-31T00:50:55;21.85;;;12.10;;
31596;SDS011;18201;50.978;7.034;2022-10-31T00:51:27;25.30;;;12.93;;
31596;SDS011;18201;50.978;7.034;2022-10-31T00:51:58;16.33;;;11.27;;
31596;SDS011;18201;50.978;7.034;2022-10-31T00:52:29;20.45;;;11.32;;
31596;SDS011;18201;50.978;7.034;2022-10-31T00:53:01;20.02;;;11.68;;
31596;SDS011;18201;50.978;7.034;2022-10-31T00:53:32;21.77;;;10.75;;
31596;SDS011;18201;50.978;7.034;2022-10-31T00:54:03;18.13;;;11.02;;
31596;SDS011;18201;50.978;7.034;2022-10-31T00:54:35;22.60;;;11.82;;
31596;SDS011;18201;50.978;7.034;2022-10-31T00:55:06;18.95;;;11.23;;
31596;SDS011;18201;50.978;7.034;2022-10-31T00:55:37;18.92;;;11.20;;
31596;SDS011;18201;50.978;7.034;2022-10-31T00:56:09;17.17;;;10.70;;
31596;SDS011;18201;50.978;7.034;2022-10-31T00:56:40;16.23;;;10.80;;
31596;SDS011;18201;50.978;7.034;2022-10-31T00:57:10;14.73;;;10.32;;
31596;SDS011;18201;50.978;7.034;2022-10-31T00:57:42;20.52;;;11.10;;
31596;SDS011;18201;50.978;7.034;2022-10-31T00:58:16;18.40;;;11.40;;
31596;SDS011;18201;50.978;7.034;2022-10-31T00:58:47;21.48;;;10.73;;
31596;SDS011;18201;50.978;7.034;2022-10-31T00:59:19;18.42;;;10.95;;
31596;SDS011;18201;50.978;7.034;2022-10-31T00:59:50;15.60;;;10.70;;
31596;SDS011;18201;50.978;7.034;2022-10-31T01:00:22;19.48;;;11.18;;
31596;SDS011;18201;50.978;7.034;2022-10-31T01:00:53;23.70;;;12.02;;
31596;SDS011;18201;50.978;7.034;2022-10-31T01:01:25;17.98;;;11.20;;
31596;SDS011;18201;50.978;7.034;2022-10-31T01:01:56;16.90;;;10.18;;
31596;SDS011;18201;50.978;7.034;2022-10-31T01:02:27;19.35;;;11.80;;
31596;SDS011;18201;50.978;7.034;2022-10-31T01:02:59;21.38;;;12.38;;
31596;SDS011;18201;50.978;7.034;2022-10-31T01:03:31;15.20;;;9.95;;
31596;SDS011;18201;50.978;7.034;2022-10-31T01:04:03;19.75;;;11.38;;
31596;SDS011;18201;50.978;7.034;2022-10-31T01:04:35;19.58;;;10.98;;
31596;SDS011;18201;50.978;7.034;2022-10-31T01:05:06;15.68;;;11.07;;
31596;SDS011;18201;50.978;7.034;2022-10-31T01:05:37;22.75;;;10.07;;
31596;SDS011;18201;50.978;7.034;2022-10-31T01:06:09;19.02;;;11.05;;
31596;SDS011;18201;50.978;7.034;2022-10-31T01:06:42;16.23;;;10.27;;
31596;SDS011;18201;50.978;7.034;2022-10-31T01:07:13;20.05;;;10.57;;
31596;SDS011;18201;50.978;7.034;2022-10-31T01:07:44;15.32;;;9.75;;
31596;SDS011;18201;50.978;7.034;2022-10-31T01:08:14;16.55;;;10.55;;
31596;SDS011;18201;50.978;7.034;2022-10-31T01:08:46;16.67;;;11.32;;
31596;SDS011;18201;50.978;7.034;2022-10-31T01:09:17;18.05;;;10.77;;
31596;SDS011;18201;50.978;7.034;2022-10-31T01:09:49;18.58;;;10.73;;
31596;SDS011;18201;50.978;7.034;2022-10-31T01:10:21;15.98;;;11.07;;
31596;SDS011;18201;50.978;7.034;2022-10-31T01:10:58;21.13;;;10.60;;
31596;SDS011;18201;50.978;7.034;2022-10-31T01:11:35;20.52;;;11.65;;
31596;SDS011;18201;50.978;7.034;2022-10-31T01:12:07;15.13;;;10.88;;
31596;SDS011;18201;50.978;7.034;2022-10-31T01:12:38;14.88;;;10.50;;
31596;SDS011;18201;50.978;7.034;2022-10-31T01:13:10;17.13;;;10.82;;
31596;SDS011;18201;50.978;7.034;2022-10-31T01:13:41;17.00;;;11.05;;
31596;SDS011;18201;50.978;7.034;2022-10-31T01:14:13;24.73;;;11.55;;
31596;SDS011;18201;50.978;7.034;2022-10-31T01:14:44;20.23;;;11.38;;
31596;SDS011;18201;50.978;7.034;2022-10-31T01:15:16;19.05;;;10.52;;
31596;SDS011;18201;50.978;7.034;2022-10-31T01:15:54;19.50;;;11.48;;
31596;SDS011;18201;50.978;7.034;2022-10-31T01:16:26;18.83;;;10.65;;
31596;SDS011;18201;50.978;7.034;2022-10-31T01:16:57;18.58;;;11.48;;
31596;SDS011;18201;50.978;7.034;2022-10-31T01:17:29;19.00;;;11.85;;
31596;SDS011;18201;50.978;7.034;2022-10-31T01:18:00;13.15;;;10.25;;
31596;SDS011;18201;50.978;7.034;2022-10-31T01:18:31;14.75;;;10.00;;
31596;SDS011;18201;50.978;7.034;2022-10-31T01:19:03;18.92;;;10.88;;
31596;SDS011;18201;50.978;7.034;2022-10-31T01:19:34;15.80;;;10.02;;
31596;SDS011;18201;50.978;7.034;2022-10-31T01:20:05;22.98;;;11.30;;
31596;SDS011;18201;50.978;7.034;2022-10-31T01:20:38;20.60;;;11.48;;
31596;SDS011;18201;50.978;7.034;2022-10-31T01:21:09;20.40;;;11.00;;
31596;SDS011;18201;50.978;7.034;2022-10-31T01:21:42;14.95;;;10.07;;
31596;SDS011;18201;50.978;7.034;2022-10-31T01:22:14;14.90;;;9.93;;
31596;SDS011;18201;50.978;7.034;2022-10-31T01:22:44;12.88;;;10.02;;
31596;SDS011;18201;50.978;7.034;2022-10-31T01:23:15;19.50;;;10.85;;
31596;SDS011;18201;50.978;7.034;2022-10-31T01:23:46;14.27;;;9.98;;
31596;SDS011;18201;50.978;7.034;2022-10-31T01:24:18;14.38;;;9.10;;
31596;SDS011;18201;50.978;7.034;2022-10-31T01:24:49;18.17;;;9.90;;
31596;SDS011;18201;50.978;7.034;2022-10-31T01:25:20;17.63;;;9.82;;
31596;SDS011;18201;50.978;7.034;2022-10-31T01:25:58;15.68;;;9.48;;
31596;SDS011;18201;50.978;7.034;2022-10-31T01:26:31;18.83;;;9.75;;
31596;SDS011;18201;50.978;7.034;2022-10-31T01:27:02;15.90;;;10.05;;
31596;SDS011;18201;50.978;7.034;2022-10-31T01:27:34;17.58;;;9.98;;
31596;SDS011;18201;50.978;7.034;2022-10-31T01:28:05;18.48;;;9.95;;
31596;SDS011;18201;50.978;7.034;2022-10-31T01:28:37;18.23;;;9.93;;
31596;SDS011;18201;50.978;7.034;2022-10-31T01:29:08;13.52;;;8.98;;
31596;SDS011;18201;50.978;7.034;2022-10-31T01:29:40;22.77;;;10.40;;
31596;SDS011;18201;50.978;7.034;2022-10-31T01:30:11;15.73;;;9.52;;
31596;SDS011;18201;50.978;7.034;2022-10-31T01:30:42;14.00;;;9.57;;
31596;SDS011;18201;50.978;7.034;2022-10-31T01:31:16;16.45;;;9.32;;
31596;SDS011;18201;50.978;7.034;2022-10-31T01:31:47;15.90;;;10.02;;
31596;SDS011;18201;50.978;7.034;2022-10-31T01:32:19;21.13;;;10.15;;
31596;SDS011;18201;50.978;7.034;2022-10-31T01:32:50;18.33;;;10.15;;
31596;SDS011;18201;50.978;7.034;2022-10-31T01:33:21;22.15;;;10.73;;
31596;SDS011;18201;50.978;7.034;2022-10-31T01:33:52;14.75;;;9.30;;
31596;SDS011;18201;50.978;7.034;2022-10-31T01:34:25;19.08;;;9.52;;
31596;SDS011;18201;50.978;7.034;2022-10-31T01:34:56;24.63;;;10.90;;
31596;SDS011;18201;50.978;7.034;2022-10-31T01:35:27;13.82;;;8.93;;
31596;SDS011;18201;50.978;7.034;2022-10-31T01:35:58;12.63;;;8.90;;
31596;SDS011;18201;50.978;7.034;2022-10-31T01:36:31;14.95;;;9.88;;
31596;SDS011;18201;50.978;7.034;2022-10-31T01:37:03;18.15;;;9.32;;
31596;SDS011;18201;50.978;7.034;2022-10-31T01:37:34;14.98;;;9.85;;
31596;SDS011;18201;50.978;7.034;2022-10-31T01:38:06;18.67;;;10.18;;
31596;SDS011;18201;50.978;7.034;2022-10-31T01:38:37;13.93;;;9.38;;
31596;SDS011;18201;50.978;7.034;2022-10-31T01:39:09;18.98;;;9.65;;
31596;SDS011;18201;50.978;7.034;2022-10-31T01:39:42;18.58;;;10.10;;
31596;SDS011;18201;50.978;7.034;2022-10-31T01:40:13;14.50;;;9.68;;
31596;SDS011;18201;50.978;7.034;2022-10-31T01:40:44;13.90;;;8.93;;
31596;SDS011;18201;50.978;7.034;2022-10-31T01:41:15;14.60;;;8.68;;
31596;SDS011;18201;50.978;7.034;2022-10-31T01:41:49;15.10;;;9.48;;
31596;SDS011;18201;50.978;7.034;2022-10-31T01:42:22;14.88;;;9.82;;
31596;SDS011;18201;50.978;7.034;2022-10-31T01:42:53;17.17;;;9.73;;
31596;SDS011;18201;50.978;7.034;2022-10-31T01:43:30;15.55;;;9.60;;
31596;SDS011;18201;50.978;7.034;2022-10-31T01:45:20;13.95;;;9.45;;
31596;SDS011;18201;50.978;7.034;2022-10-31T01:45:52;15.98;;;9.88;;
31596;SDS011;18201;50.978;7.034;2022-10-31T01:46:27;16.58;;;9.43;;
31596;SDS011;18201;50.978;7.034;2022-10-31T01:47:05;16.10;;;9.23;;
31596;SDS011;18201;50.978;7.034;2022-10-31T01:47:41;17.75;;;9.05;;
31596;SDS011;18201;50.978;7.034;2022-10-31T01:48:15;15.95;;;9.77;;
31596;SDS011;18201;50.978;7.034;2022-10-31T01:48:48;19.35;;;9.82;;
31596;SDS011;18201;50.978;7.034;2022-10-31T01:49:21;14.82;;;8.75;;
31596;SDS011;18201;50.978;7.034;2022-10-31T01:49:56;12.80;;;9.18;;
31596;SDS011;18201;50.978;7.034;2022-10-31T01:50:31;17.58;;;9.50;;
31596;SDS011;18201;50.978;7.034;2022-10-31T01:51:06;16.77;;;9.18;;
31596;SDS011;18201;50.978;7.034;2022-10-31T01:51:39;18.35;;;9.57;;
31596;SDS011;18201;50.978;7.034;2022-10-31T01:52:18;21.48;;;10.05;;
31596;SDS011;18201;50.978;7.034;2022-10-31T01:52:54;13.15;;;9.38;;
31596;SDS011;18201;50.978;7.034;2022-10-31T01:53:25;12.65;;;8.68;;
31596;SDS011;18201;50.978;7.034;2022-10-31T01:53:58;20.70;;;9.75;;
31596;SDS011;18201;50.978;7.034;2022-10-31T01:54:42;11.82;;;9.00;;
31596;SDS011;18201;50.978;7.034;2022-10-31T01:55:18;13.00;;;8.93;;
31596;SDS011;18201;50.978;7.034;2022-10-31T01:55:54;16.10;;;9.73;;
31596;SDS011;18201;50.978;7.034;2022-10-31T01:56:25;17.00;;;9.00;;
31596;SDS011;18201;50.978;7.034;2022-10-31T01:56:57;16.15;;;9.70;;
31596;SDS011;18201;50.978;7.034;2022-10-31T01:57:30;21.33;;;9.18;;
31596;SDS011;18201;50.978;7.034;2022-10-31T01:58:04;19.10;;;10.05;;
31596;SDS011;18201;50.978;7.034;2022-10-31T01:58:40;16.08;;;9.32;;
31596;SDS011;18201;50.978;7.034;2022-10-31T01:59:15;19.20;;;9.82;;
31596;SDS011;18201;50.978;7.034;2022-10-31T01:59:49;12.02;;;8.85;;
31596;SDS011;18201;50.978;7.034;2022-10-31T02:00:23;16.55;;;9.38;;
31596;SDS011;18201;50.978;7.034;2022-10-31T02:00:56;15.82;;;9.60;;
31596;SDS011;18201;50.978;7.034;2022-10-31T02:01:30;15.88;;;9.70;;
31596;SDS011;18201;50.978;7.034;2022-10-31T02:02:01;11.02;;;8.35;;
31596;SDS011;18201;50.978;7.034;2022-10-31T02:02:33;21.58;;;9.40;;
31596;SDS011;18201;50.978;7.034;2022-10-31T02:03:04;12.73;;;9.40;;
31596;SDS011;18201;50.978;7.034;2022-10-31T02:03:35;16.95;;;9.95;;
31596;SDS011;18201;50.978;7.034;2022-10-31T02:04:07;14.77;;;9.68;;
31596;SDS011;18201;50.978;7.034;2022-10-31T02:04:38;13.15;;;9.45;;
31596;SDS011;18201;50.978;7.034;2022-10-31T02:05:10;12.73;;;9.30;;
31596;SDS011;18201;50.978;7.034;2022-10-31T02:05:46;20.17;;;9.85;;
31596;SDS011;18201;50.978;7.034;2022-10-31T02:06:20;14.90;;;8.95;;
31596;SDS011;18201;50.978;7.034;2022-10-31T02:06:57;14.82;;;9.63;;
31596;SDS011;18201;50.978;7.034;2022-10-31T02:07:33;17.45;;;9.68;;
31596;SDS011;18201;50.978;7.034;2022-10-31T02:08:10;14.52;;;8.80;;
31596;SDS011;18201;50.978;7.034;2022-10-31T02:08:46;13.20;;;9.32;;
31596;SDS011;18201;50.978;7.034;2022-10-31T02:09:18;13.00;;;9.25;;
31596;SDS011;18201;50.978;7.034;2022-10-31T02:09:53;17.45;;;9.20;;
31596;SDS011;18201;50.978;7.034;2022-10-31T02:10:25;22.48;;;9.95;;
31596;SDS011;18201;50.978;7.034;2022-10-31T02:10:59;16.48;;;9.05;;
31596;SDS011;18201;50.978;7.034;2022-10-31T02:11:31;16.75;;;9.95;;
31596;SDS011;18201;50.978;7.034;2022-10-31T02:12:04;15.55;;;9.20;;
31596;SDS011;18201;50.978;7.034;2022-10-31T02:12:37;15.30;;;9.38;;
31596;SDS011;18201;50.978;7.034;2022-10-31T02:13:09;19.65;;;9.30;;
31596;SDS011;18201;50.978;7.034;2022-10-31T02:13:42;15.00;;;9.60;;
31596;SDS011;18201;50.978;7.034;2022-10-31T02:14:14;15.48;;;9.20;;
31596;SDS011;18201;50.978;7.034;2022-10-31T02:14:44;13.93;;;9.23;;
31596;SDS011;18201;50.978;7.034;2022-10-31T02:15:16;15.52;;;9.52;;
31596;SDS011;18201;50.978;7.034;2022-10-31T02:15:49;16.75;;;9.18;;
31596;SDS011;18201;50.978;7.034;2022-10-31T02:16:22;20.00;;;9.43;;
31596;SDS011;18201;50.978;7.034;2022-10-31T02:16:55;10.88;;;8.65;;
31596;SDS011;18201;50.978;7.034;2022-10-31T02:17:25;15.88;;;9.40;;
31596;SDS011;18201;50.978;7.034;2022-10-31T02:17:58;20.55;;;9.10;;
31596;SDS011;18201;50.978;7.034;2022-10-31T02:18:29;16.02;;;9.30;;
31596;SDS011;18201;50.978;7.034;2022-10-31T02:19:01;17.55;;;8.85;;
31596;SDS011;18201;50.978;7.034;2022-10-31T02:19:37;14.85;;;9.57;;
31596;SDS011;18201;50.978;7.034;2022-10-31T02:20:21;15.63;;;9.23;;
31596;SDS011;18201;50.978;7.034;2022-10-31T02:20:58;16.83;;;8.90;;
31596;SDS011;18201;50.978;7.034;2022-10-31T02:21:35;14.85;;;9.30;;
31596;SDS011;18201;50.978;7.034;2022-10-31T02:22:12;17.05;;;9.88;;
31596;SDS011;18201;50.978;7.034;2022-10-31T02:22:59;17.88;;;10.15;;
31596;SDS011;18201;50.978;7.034;2022-10-31T02:24:09;13.25;;;8.73;;
31596;SDS011;18201;50.978;7.034;2022-10-31T02:25:10;16.13;;;8.50;;
31596;SDS011;18201;50.978;7.034;2022-10-31T02:26:08;19.48;;;10.02;;
31596;SDS011;18201;50.978;7.034;2022-10-31T02:27:03;14.15;;;9.55;;
31596;SDS011;18201;50.978;7.034;2022-10-31T02:27:49;21.90;;;10.02;;
31596;SDS011;18201;50.978;7.034;2022-10-31T02:28:35;15.27;;;9.85;;
31596;SDS011;18201;50.978;7.034;2022-10-31T02:29:39;21.30;;;9.77;;
31596;SDS011;18201;50.978;7.034;2022-10-31T02:30:40;15.52;;;9.48;;
31596;SDS011;18201;50.978;7.034;2022-10-31T02:31:22;18.65;;;10.65;;
31596;SDS011;18201;50.978;7.034;2022-10-31T02:32:00;14.40;;;9.60;;
31596;SDS011;18201;50.978;7.034;2022-10-31T02:32:41;19.35;;;10.07;;
31596;SDS011;18201;50.978;7.034;2022-10-31T02:33:20;15.73;;;9.48;;
31596;SDS011;18201;50.978;7.034;2022-10-31T02:33:57;12.52;;;9.48;;
31596;SDS011;18201;50.978;7.034;2022-10-31T02:34:34;15.65;;;9.75;;
31596;SDS011;18201;50.978;7.034;2022-10-31T02:35:50;18.85;;;9.57;;
31596;SDS011;18201;50.978;7.034;2022-10-31T02:36:31;17.70;;;8.80;;
31596;SDS011;18201;50.978;7.034;2022-10-31T02:37:11;19.60;;;9.30;;
31596;SDS011;18201;50.978;7.034;2022-10-31T02:37:47;17.50;;;8.95;;
31596;SDS011;18201;50.978;7.034;2022-10-31T02:38:28;16.55;;;9.70;;
31596;SDS011;18201;50.978;7.034;2022-10-31T02:39:11;20.30;;;9.95;;
31596;SDS011;18201;50.978;7.034;2022-10-31T02:39:47;17.30;;;9.27;;
31596;SDS011;18201;50.978;7.034;2022-10-31T02:40:25;15.55;;;9.55;;
31596;SDS011;18201;50.978;7.034;2022-10-31T02:41:01;13.48;;;9.40;;
31596;SDS011;18201;50.978;7.034;2022-10-31T02:41:42;14.20;;;9.32;;
31596;SDS011;18201;50.978;7.034;2022-10-31T02:42:57;19.83;;;10.80;;
31596;SDS011;18201;50.978;7.034;2022-10-31T02:43:34;15.65;;;10.02;;
31596;SDS011;18201;50.978;7.034;2022-10-31T02:44:13;14.30;;;10.07;;
31596;SDS011;18201;50.978;7.034;2022-10-31T02:44:49;13.85;;;10.30;;
31596;SDS011;18201;50.978;7.034;2022-10-31T02:45:26;16.85;;;10.43;;
31596;SDS011;18201;50.978;7.034;2022-10-31T02:46:04;16.38;;;10.25;;
31596;SDS011;18201;50.978;7.034;2022-10-31T02:46:43;16.30;;;10.85;;
31596;SDS011;18201;50.978;7.034;2022-10-31T02:47:20;21.13;;;9.98;;
31596;SDS011;18201;50.978;7.034;2022-10-31T02:47:55;15.13;;;10.23;;
31596;SDS011;18201;50.978;7.034;2022-10-31T02:48:31;16.48;;;10.40;;
31596;SDS011;18201;50.978;7.034;2022-10-31T02:49:05;16.20;;;9.48;;
31596;SDS011;18201;50.978;7.034;2022-10-31T02:49:44;18.05;;;9.82;;
31596;SDS011;18201;50.978;7.034;2022-10-31T02:50:19;14.30;;;9.68;;
31596;SDS011;18201;50.978;7.034;2022-10-31T02:50:55;21.05;;;10.55;;
31596;SDS011;18201;50.978;7.034;2022-10-31T02:51:28;17.10;;;9.98;;
31596;SDS011;18201;50.978;7.034;2022-10-31T02:52:00;15.55;;;10.18;;
31596;SDS011;18201;50.978;7.034;2022-10-31T02:52:32;18.98;;;9.40;;
31596;SDS011;18201;50.978;7.034;2022-10-31T02:53:05;18.17;;;10.43;;
31596;SDS011;18201;50.978;7.034;2022-10-31T02:53:36;14.73;;;9.23;;
31596;SDS011;18201;50.978;7.034;2022-10-31T02:54:16;19.08;;;9.52;;
31596;SDS011;18201;50.978;7.034;2022-10-31T02:54:49;16.20;;;9.20;;
31596;SDS011;18201;50.978;7.034;2022-10-31T02:55:42;18.48;;;9.23;;
31596;SDS011;18201;50.978;7.034;2022-10-31T02:56:19;11.43;;;8.50;;
31596;SDS011;18201;50.978;7.034;2022-10-31T02:56:51;17.25;;;9.55;;
31596;SDS011;18201;50.978;7.034;2022-10-31T02:57:28;14.85;;;9.50;;
31596;SDS011;18201;50.978;7.034;2022-10-31T02:58:04;11.80;;;9.32;;
31596;SDS011;18201;50.978;7.034;2022-10-31T02:58:41;14.88;;;9.77;;
31596;SDS011;18201;50.978;7.034;2022-10-31T02:59:15;17.92;;;9.88;;
31596;SDS011;18201;50.978;7.034;2022-10-31T02:59:49;13.20;;;8.82;;
31596;SDS011;18201;50.978;7.034;2022-10-31T03:00:24;15.43;;;10.00;;
31596;SDS011;18201;50.978;7.034;2022-10-31T03:00:59;17.58;;;9.15;;
31596;SDS011;18201;50.978;7.034;2022-10-31T03:01:56;14.63;;;9.32;;
31596;SDS011;18201;50.978;7.034;2022-10-31T03:03:00;11.80;;;6.68;;
31596;SDS011;18201;50.978;7.034;2022-10-31T03:03:37;11.77;;;8.95;;
31596;SDS011;18201;50.978;7.034;2022-10-31T03:04:23;13.05;;;8.80;;
31596;SDS011;18201;50.978;7.034;2022-10-31T03:06:17;17.73;;;9.60;;
31596;SDS011;18201;50.978;7.034;2022-10-31T03:06:56;13.15;;;8.57;;
31596;SDS011;18201;50.978;7.034;2022-10-31T03:07:34;17.20;;;8.90;;
31596;SDS011;18201;50.978;7.034;2022-10-31T03:08:19;13.57;;;8.70;;
31596;SDS011;18201;50.978;7.034;2022-10-31T03:08:55;11.05;;;9.50;;
31596;SDS011;18201;50.978;7.034;2022-10-31T03:09:33;14.65;;;10.00;;
31596;SDS011;18201;50.978;7.034;2022-10-31T03:10:14;17.02;;;9.07;;
31596;SDS011;18201;50.978;7.034;2022-10-31T03:10:52;14.80;;;8.57;;
31596;SDS011;18201;50.978;7.034;2022-10-31T03:11:28;17.02;;;9.25;;
31596;SDS011;18201;50.978;7.034;2022-10-31T03:12:07;16.95;;;9.73;;
31596;SDS011;18201;50.978;7.034;2022-10-31T03:12:44;24.00;;;10.13;;
31596;SDS011;18201;50.978;7.034;2022-10-31T03:13:27;28.35;;;12.15;;
31596;SDS011;18201;50.978;7.034;2022-10-31T03:14:06;10.95;;;8.93;;
31596;SDS011;18201;50.978;7.034;2022-10-31T03:14:48;18.10;;;9.63;;
31596;SDS011;18201;50.978;7.034;2022-10-31T03:15:24;14.30;;;8.45;;
31596;SDS011;18201;50.978;7.034;2022-10-31T03:16:02;20.70;;;9.52;;
31596;SDS011;18201;50.978;7.034;2022-10-31T03:16:42;13.43;;;8.52;;
31596;SDS011;18201;50.978;7.034;2022-10-31T03:17:18;12.90;;;9.32;;
31596;SDS011;18201;50.978;7.034;2022-10-31T03:17:57;12.13;;;8.43;;
31596;SDS011;18201;50.978;7.034;2022-10-31T03:18:32;16.30;;;8.68;;
31596;SDS011;18201;50.978;7.034;2022-10-31T03:19:08;16.58;;;9.48;;
31596;SDS011;18201;50.978;7.034;2022-10-31T03:19:42;15.18;;;8.73;;
31596;SDS011;18201;50.978;7.034;2022-10-31T03:20:18;14.07;;;9.52;;
31596;SDS011;18201;50.978;7.034;2022-10-31T03:20:54;18.77;;;9.80;;
31596;SDS011;18201;50.978;7.034;2022-10-31T03:21:30;15.95;;;8.80;;
31596;SDS011;18201;50.978;7.034;2022-10-31T03:22:06;14.15;;;8.75;;
31596;SDS011;18201;50.978;7.034;2022-10-31T03:22:43;14.00;;;8.80;;
31596;SDS011;18201;50.978;7.034;2022-10-31T03:23:16;15.55;;;9.05;;
31596;SDS011;18201;50.978;7.034;2022-10-31T03:23:49;12.13;;;8.85;;
31596;SDS011;18201;50.978;7.034;2022-10-31T03:24:22;12.38;;;8.52;;
31596;SDS011;18201;50.978;7.034;2022-10-31T03:24:58;17.98;;;9.60;;